This is the latest recevied weather packets stored in our database for station/object KB3KBR-WX. If no packets are shown the sender has not sent any weather packets the latest 10 day(s).
| Time | Temp. | Humidity | Pressure | Rain* | Wind** | Luminosity | Snow |
|---|---|---|---|---|---|---|---|
| 1777928788 | 21.67° C | 45% | 1002.7 hPa | 0 mm | - | - | - |
| 1777928488 | 21.67° C | 45% | 1002.8 hPa | 0 mm | - | - | - |
| 1777928161 | 21.67° C | 44% | 1002.7 hPa | 0 mm | - | - | - |
| 1777927863 | 22.22° C | 44% | 1002.6 hPa | 0 mm | - | - | - |
| 1777927561 | 22.22° C | 45% | 1002.7 hPa | 0 mm | - | - | - |
| 1777927228 | 22.22° C | 45% | 1002.8 hPa | 0 mm | - | - | - |
| 1777926598 | 21.67° C | 44% | 1002.8 hPa | 0 mm | - | - | - |
| 1777925971 | 22.22° C | 44% | 1003 hPa | 0 mm | - | - | - |
| 1777925638 | 22.22° C | 43% | 1003.1 hPa | 0 mm | - | - | - |
| 1777925342 | 22.22° C | 46% | 1003 hPa | 0 mm | - | - | - |
| 1777925008 | 22.22° C | 44% | 1003.1 hPa | 0 mm | - | - | - |
| 1777924678 | 22.22° C | 46% | 1003.1 hPa | 0 mm | - | - | - |
| 1777924378 | 22.22° C | 44% | 1003.2 hPa | 0 mm | - | - | - |
| 1777924048 | 22.22° C | 42% | 1003.3 hPa | 0 mm | - | - | - |
| 1777923722 | 22.22° C | 44% | 1003.2 hPa | 0 mm | - | - | - |
| 1777923388 | 22.22° C | 43% | 1003.4 hPa | 0 mm | - | - | - |
| 1777923088 | 22.22° C | 44% | 1003.3 hPa | 0 mm | - | - | - |
| 1777922788 | 22.22° C | 43% | 1003.6 hPa | 0 mm | - | - | - |
| 1777922458 | 22.22° C | 41% | 1003.6 hPa | 0 mm | - | - | - |
| 1777922132 | 22.22° C | 40% | 1003.7 hPa | 0 mm | - | - | - |
| 1777921798 | 22.22° C | 39% | 1003.9 hPa | 0 mm | - | - | - |
| 1777921498 | 22.22° C | 39% | 1003.9 hPa | 0 mm | - | - | - |
| 1777921168 | 21.67° C | 38% | 1004 hPa | 0 mm | - | - | - |
| 1777920868 | 22.22° C | 39% | 1004 hPa | 0 mm | - | - | - |
| 1777920540 | 21.67° C | 40% | 1003.9 hPa | 0 mm | - | - | - |
* Rain latest hour (hover to see other rain measurements)
** Current wind speed in m/s (hover to see current wind gust speed)